Time;durP1;ratioP1;P1;durP2;ratioP2;P2;SDS_P1;SDS_P2;PMS_P1;PMS_P2;Temp;Humidity;BMP_temperature;BMP_pressure;BME280_temperature;BME280_humidity;BME280_pressure;Samples;Min_cycle;Max_cycle;Signal;HPM_P1;HPM_P2
2024/01/17 00:00:15;;;;;;;7.25;3.28;;;1.40;99.90;;;;;;5059925;28;20044;-47
2024/01/17 00:02:41;;;;;;;10.30;3.33;;;1.50;99.90;;;;;;5060894;28;20522;-49
2024/01/17 00:05:10;;;;;;;5.82;3.38;;;1.40;99.90;;;;;;5060406;28;20130;-50
2024/01/17 00:07:36;;;;;;;3.80;2.67;;;1.40;99.90;;;;;;5063783;28;20049;-50
2024/01/17 00:10:03;;;;;;;7.68;2.95;;;1.40;99.90;;;;;;5059545;28;20131;-46
2024/01/17 00:12:30;;;;;;;12.75;2.88;;;1.40;99.90;;;;;;5053736;28;20041;-47
2024/01/17 00:14:55;;;;;;;6.15;2.50;;;1.40;99.90;;;;;;5063500;28;20071;-47
2024/01/17 00:17:21;;;;;;;5.78;2.60;;;1.30;99.90;;;;;;5063885;28;20507;-48
2024/01/17 00:19:47;;;;;;;6.43;2.25;;;1.30;99.90;;;;;;5059775;28;20052;-48
2024/01/17 00:22:15;;;;;;;8.82;2.88;;;1.30;99.90;;;;;;5058488;28;20055;-49
2024/01/17 00:24:41;;;;;;;5.15;2.33;;;1.30;99.90;;;;;;5061739;28;20049;-48
2024/01/17 00:27:08;;;;;;;4.70;2.47;;;1.40;99.90;;;;;;5064435;28;20358;-51
2024/01/17 00:29:34;;;;;;;5.15;2.90;;;1.30;99.90;;;;;;5064296;28;20790;-48
2024/01/17 00:32:00;;;;;;;8.88;2.92;;;1.30;99.90;;;;;;5059979;28;20522;-50
2024/01/17 00:34:26;;;;;;;7.40;2.80;;;1.30;99.90;;;;;;5065261;28;20043;-51
2024/01/17 00:36:52;;;;;;;12.73;3.60;;;1.20;99.90;;;;;;5060141;28;20507;-48
2024/01/17 00:39:18;;;;;;;3.92;3.15;;;1.20;99.90;;;;;;5063894;28;20040;-50
2024/01/17 00:41:47;;;;;;;7.95;3.33;;;1.20;99.90;;;;;;5062994;28;20072;-46
2024/01/17 00:44:16;;;;;;;;;;;1.20;99.90;;;;;;5064594;28;20160;-48
2024/01/17 00:46:42;;;;;;;4.30;2.90;;;1.20;99.90;;;;;;5044161;28;19926;-48
2024/01/17 00:49:08;;;;;;;6.70;3.28;;;1.20;99.90;;;;;;5062557;28;20029;-47
2024/01/17 00:51:35;;;;;;;8.15;4.63;;;1.20;99.90;;;;;;5064175;28;20121;-48
2024/01/17 00:54:00;;;;;;;6.90;3.50;;;1.10;99.90;;;;;;5063115;28;20040;-48
2024/01/17 00:56:26;;;;;;;8.55;4.25;;;1.20;99.90;;;;;;5064110;28;20490;-50
2024/01/17 00:58:52;;;;;;;6.63;3.50;;;1.20;99.90;;;;;;5058872;28;20048;-47
2024/01/17 01:01:19;;;;;;;11.93;3.95;;;1.30;99.90;;;;;;5041347;28;20423;-50
2024/01/17 01:03:45;;;;;;;7.90;3.95;;;1.20;99.90;;;;;;5062717;28;20045;-46
2024/01/17 01:06:11;;;;;;;9.25;4.70;;;1.20;99.90;;;;;;5057237;28;20044;-47
2024/01/17 01:08:37;;;;;;;7.45;3.67;;;1.20;99.90;;;;;;5063231;28;20048;-47
2024/01/17 01:11:03;;;;;;;5.95;3.60;;;1.30;99.90;;;;;;5059971;28;20517;-46
2024/01/17 01:13:29;;;;;;;10.65;3.97;;;1.30;99.90;;;;;;5047195;28;20045;-47
2024/01/17 01:15:55;;;;;;;7.85;4.32;;;1.30;99.90;;;;;;5045088;28;20035;-47
2024/01/17 01:18:20;;;;;;;8.10;3.67;;;1.30;99.90;;;;;;5058314;28;20037;-47
2024/01/17 01:20:46;;;;;;;7.90;4.18;;;1.30;99.90;;;;;;5058469;28;20442;-50
2024/01/17 01:23:12;;;;;;;7.30;3.33;;;1.30;99.90;;;;;;5061763;28;20386;-48
2024/01/17 01:25:38;;;;;;;10.05;4.63;;;1.30;99.90;;;;;;5062433;28;20510;-47
2024/01/17 01:28:04;;;;;;;7.90;4.40;;;1.30;99.90;;;;;;5061905;28;20059;-47
2024/01/17 01:30:31;;;;;;;5.22;3.83;;;1.30;99.90;;;;;;5057429;28;20044;-48
2024/01/17 01:32:57;;;;;;;9.68;4.35;;;1.30;99.90;;;;;;5061189;28;20044;-48
2024/01/17 01:35:22;;;;;;;9.05;4.43;;;1.40;99.90;;;;;;5058265;28;20090;-47
2024/01/17 01:37:48;;;;;;;9.32;4.68;;;1.30;99.90;;;;;;5060606;28;20037;-48
2024/01/17 01:40:14;;;;;;;7.85;4.28;;;1.30;99.90;;;;;;5055453;28;20041;-47
2024/01/17 01:42:46;;;;;;;11.40;5.38;;;1.30;99.90;;;;;;5060288;28;20090;-47
2024/01/17 01:45:12;;;;;;;9.50;5.03;;;1.30;99.90;;;;;;5061164;28;20032;-47
2024/01/17 01:47:38;;;;;;;12.05;5.30;;;1.30;99.90;;;;;;5061407;28;20137;-50
2024/01/17 01:50:05;;;;;;;9.95;5.40;;;1.30;99.90;;;;;;5060329;28;20094;-47
2024/01/17 01:52:37;;;;;;;10.43;5.13;;;1.30;99.90;;;;;;5061693;28;20031;-48
2024/01/17 01:55:06;;;;;;;8.57;5.15;;;1.20;99.90;;;;;;5053767;28;20045;-47
2024/01/17 01:57:35;;;;;;;17.13;5.78;;;1.20;99.90;;;;;;5061504;28;20036;-47
2024/01/17 02:00:04;;;;;;;;;;;1.20;99.90;;;;;;5062173;28;20036;-48
2024/01/17 02:02:31;;;;;;;9.73;5.10;;;1.20;99.90;;;;;;5060964;28;19920;-50
2024/01/17 02:04:59;;;;;;;13.85;5.93;;;1.20;99.90;;;;;;5057051;28;20371;-49
2024/01/17 02:07:27;;;;;;;10.25;5.85;;;1.20;99.90;;;;;;5050309;28;20036;-50
2024/01/17 02:09:54;;;;;;;12.65;5.90;;;1.10;99.90;;;;;;5055588;28;20041;-47
2024/01/17 02:12:20;;;;;;;13.48;6.68;;;1.10;99.90;;;;;;5059810;28;20044;-50
2024/01/17 02:14:45;;;;;;;11.40;6.35;;;1.10;99.90;;;;;;5060203;28;20094;-50
2024/01/17 02:17:11;;;;;;;10.25;6.00;;;1.10;99.90;;;;;;5059734;28;20036;-47
2024/01/17 02:19:40;;;;;;;13.02;6.32;;;1.10;99.90;;;;;;5059028;28;20135;-49
2024/01/17 02:22:06;;;;;;;14.15;6.30;;;1.10;99.90;;;;;;5057881;28;20044;-50
2024/01/17 02:24:32;;;;;;;13.13;7.07;;;1.10;99.90;;;;;;5060505;28;20101;-48
2024/01/17 02:26:59;;;;;;;10.60;6.18;;;1.10;99.90;;;;;;5061901;28;20036;-49
2024/01/17 02:29:26;;;;;;;12.20;6.32;;;1.10;99.90;;;;;;5060433;28;20036;-47
2024/01/17 02:31:52;;;;;;;11.63;6.60;;;1.10;99.90;;;;;;5058969;28;20036;-48
2024/01/17 02:34:18;;;;;;;10.82;6.00;;;1.10;99.90;;;;;;5060060;28;20036;-50
2024/01/17 02:36:44;;;;;;;12.32;7.00;;;1.10;99.90;;;;;;5059349;28;20063;-50
2024/01/17 02:39:10;;;;;;;12.63;6.65;;;1.10;99.90;;;;;;5057619;28;20451;-47
2024/01/17 02:41:36;;;;;;;10.82;6.63;;;1.00;99.90;;;;;;5055462;28;20045;-48
2024/01/17 02:44:02;;;;;;;11.15;6.53;;;1.40;99.90;;;;;;5061190;28;20061;-47
2024/01/17 02:46:29;;;;;;;10.65;6.15;;;1.10;99.90;;;;;;5062098;28;20040;-49
2024/01/17 02:48:55;;;;;;;13.57;6.63;;;1.10;99.90;;;;;;5059610;28;20106;-50
2024/01/17 02:51:21;;;;;;;11.65;6.53;;;1.10;99.90;;;;;;5060834;28;20037;-49
2024/01/17 02:53:46;;;;;;;8.80;6.38;;;1.10;99.90;;;;;;5061554;28;20043;-48
2024/01/17 02:56:14;;;;;;;14.55;6.50;;;1.10;99.90;;;;;;5061089;28;20578;-48
2024/01/17 02:58:40;;;;;;;18.20;7.13;;;1.10;99.90;;;;;;5059826;28;20486;-49
2024/01/17 03:01:06;;;;;;;12.85;7.13;;;1.10;99.90;;;;;;5060409;28;20052;-47
2024/01/17 03:03:32;;;;;;;12.98;6.53;;;1.10;99.90;;;;;;5040793;28;20099;-47
2024/01/17 03:05:58;;;;;;;11.45;6.63;;;1.10;99.90;;;;;;5056982;28;20581;-46
2024/01/17 03:08:24;;;;;;;12.52;7.35;;;1.10;99.90;;;;;;5058523;28;20098;-46
2024/01/17 03:10:50;;;;;;;14.40;7.40;;;1.00;99.90;;;;;;5056002;28;20037;-50
2024/01/17 03:13:15;;;;;;;12.98;6.47;;;1.00;99.90;;;;;;5056552;28;20747;-48
2024/01/17 03:15:41;;;;;;;10.65;6.60;;;1.00;99.90;;;;;;5047574;28;20037;-45
2024/01/17 03:18:13;;;;;;;13.75;6.95;;;1.00;99.90;;;;;;5059733;28;20149;-49
2024/01/17 03:20:40;;;;;;;16.20;7.43;;;1.00;99.90;;;;;;5053450;28;20128;-48
2024/01/17 03:23:06;;;;;;;12.05;7.13;;;1.00;99.90;;;;;;5061371;28;20036;-49
2024/01/17 03:25:32;;;;;;;11.15;7.35;;;1.00;99.90;;;;;;5060474;28;20812;-50
2024/01/17 03:27:57;;;;;;;11.88;7.32;;;1.00;99.90;;;;;;5037595;28;20051;-50
2024/01/17 03:30:23;;;;;;;15.25;7.50;;;1.00;99.90;;;;;;5061700;28;20280;-46
2024/01/17 03:32:49;;;;;;;14.23;7.47;;;1.00;99.90;;;;;;5060046;28;20049;-48
2024/01/17 03:35:14;;;;;;;12.07;7.30;;;1.00;99.90;;;;;;5059624;28;20404;-50
2024/01/17 03:37:40;;;;;;;11.20;7.45;;;1.00;99.90;;;;;;5058039;28;20389;-48
2024/01/17 03:40:06;;;;;;;13.63;7.65;;;0.90;99.90;;;;;;5053305;28;20037;-48
2024/01/17 03:42:32;;;;;;;15.30;7.57;;;1.00;99.90;;;;;;5058454;28;20045;-49
2024/01/17 03:44:58;;;;;;;11.32;7.95;;;1.00;99.90;;;;;;5058785;28;20068;-47
2024/01/17 03:47:23;;;;;;;14.00;7.30;;;1.00;99.90;;;;;;5060351;28;20040;-48
2024/01/17 03:49:49;;;;;;;14.05;7.53;;;1.00;99.90;;;;;;5055285;28;20450;-46
2024/01/17 03:52:16;;;;;;;12.70;8.07;;;0.90;99.90;;;;;;5059473;28;20087;-47
2024/01/17 03:54:41;;;;;;;14.02;7.53;;;1.00;99.90;;;;;;5061587;28;20680;-49
2024/01/17 03:57:08;;;;;;;16.90;9.70;;;0.90;99.90;;;;;;5062192;28;20489;-47
2024/01/17 03:59:34;;;;;;;14.43;7.85;;;0.90;99.90;;;;;;5060531;28;20037;-48
2024/01/17 04:02:00;;;;;;;16.40;8.82;;;0.90;99.90;;;;;;5062621;28;20556;-48
2024/01/17 04:04:26;;;;;;;17.35;8.73;;;0.90;99.90;;;;;;5065325;28;20263;-47
2024/01/17 04:06:53;;;;;;;16.77;8.20;;;0.90;99.90;;;;;;5065063;28;20115;-48
2024/01/17 04:09:19;;;;;;;16.48;8.68;;;0.90;99.90;;;;;;5065512;28;20051;-48
2024/01/17 04:11:45;;;;;;;12.40;8.10;;;0.80;99.90;;;;;;5059662;28;20037;-49
2024/01/17 04:14:12;;;;;;;14.82;7.88;;;0.80;99.90;;;;;;5064660;28;20109;-46
2024/01/17 04:16:39;;;;;;;19.55;8.85;;;0.80;99.90;;;;;;5061380;28;20040;-50
2024/01/17 04:19:07;;;;;;;14.10;8.88;;;0.70;99.90;;;;;;5060778;28;20055;-48
2024/01/17 04:21:33;;;;;;;16.10;9.50;;;0.70;99.90;;;;;;5039761;28;20059;-51
2024/01/17 04:23:58;;;;;;;13.68;9.27;;;0.80;99.90;;;;;;5059062;28;20033;-48
2024/01/17 04:26:25;;;;;;;16.98;8.60;;;0.70;99.90;;;;;;5059909;28;20562;-48
2024/01/17 04:28:52;;;;;;;14.35;8.18;;;0.70;99.90;;;;;;5059493;28;20049;-49
2024/01/17 04:31:30;;;;;;;16.83;8.68;;;0.70;99.90;;;;;;5064695;28;20121;-48
2024/01/17 04:33:58;;;;;;;12.35;8.18;;;0.70;99.90;;;;;;5061449;28;20067;-48
2024/01/17 04:36:27;;;;;;;14.82;9.00;;;0.70;99.90;;;;;;5063371;28;20044;-50
2024/01/17 04:38:53;;;;;;;16.30;8.07;;;0.70;99.90;;;;;;5061411;28;20071;-47
2024/01/17 04:41:20;;;;;;;15.20;8.93;;;0.80;99.90;;;;;;5064371;28;20040;-49
2024/01/17 04:43:46;;;;;;;17.45;8.98;;;0.70;99.90;;;;;;5063435;28;20131;-49
2024/01/17 04:46:14;;;;;;;15.65;9.13;;;0.70;99.90;;;;;;5063280;28;20356;-53
2024/01/17 04:48:41;;;;;;;16.63;8.90;;;0.70;99.90;;;;;;5061778;28;20036;-51
2024/01/17 04:51:07;;;;;;;16.73;8.45;;;0.70;99.90;;;;;;5062988;28;20045;-49
2024/01/17 04:53:33;;;;;;;16.90;8.82;;;0.70;99.90;;;;;;5062650;28;20068;-48
2024/01/17 04:55:59;;;;;;;12.48;8.35;;;0.70;99.90;;;;;;5062442;28;20037;-47
2024/01/17 04:58:26;;;;;;;11.75;8.57;;;0.70;99.90;;;;;;5062894;28;20683;-49
2024/01/17 05:00:52;;;;;;;12.25;8.98;;;0.70;99.90;;;;;;5063607;28;20044;-49
2024/01/17 05:03:18;;;;;;;13.70;8.68;;;0.70;99.90;;;;;;5062939;28;20045;-48
2024/01/17 05:05:44;;;;;;;16.38;8.88;;;0.60;99.90;;;;;;5063339;28;20040;-47
2024/01/17 05:08:10;;;;;;;17.35;9.43;;;0.60;99.90;;;;;;5061035;28;20487;-49
2024/01/17 05:10:36;;;;;;;15.00;8.98;;;0.50;99.90;;;;;;5064942;28;20048;-51
2024/01/17 05:13:02;;;;;;;13.73;8.60;;;0.50;99.90;;;;;;5062288;28;20037;-47
2024/01/17 05:15:27;;;;;;;11.40;8.50;;;0.50;99.90;;;;;;5061781;28;20457;-47
2024/01/17 05:17:54;;;;;;;16.88;9.68;;;0.50;99.90;;;;;;5057482;28;20602;-50
2024/01/17 05:20:20;;;;;;;16.38;9.43;;;0.40;99.90;;;;;;5059724;28;20503;-48
2024/01/17 05:22:46;;;;;;;17.70;9.30;;;0.40;99.90;;;;;;5061193;28;20103;-47
2024/01/17 05:25:11;;;;;;;13.18;8.23;;;0.40;99.90;;;;;;5062448;28;20087;-50
2024/01/17 05:27:38;;;;;;;17.83;9.07;;;0.40;99.90;;;;;;5056550;28;20036;-49
2024/01/17 05:30:04;;;;;;;20.77;9.30;;;0.40;99.90;;;;;;5061610;28;20048;-47
2024/01/17 05:32:30;;;;;;;18.13;9.57;;;0.40;99.90;;;;;;5062780;28;20047;-50
2024/01/17 05:34:56;;;;;;;16.33;9.02;;;0.40;99.90;;;;;;5053257;28;20044;-47
2024/01/17 05:37:23;;;;;;;17.48;9.35;;;0.40;99.90;;;;;;5062776;28;20036;-51
2024/01/17 05:39:49;;;;;;;19.65;10.05;;;0.30;99.90;;;;;;5056382;28;20120;-49
2024/01/17 05:42:15;;;;;;;15.05;9.02;;;0.30;99.90;;;;;;5063060;28;20233;-46
2024/01/17 05:44:41;;;;;;;15.18;9.25;;;0.30;99.90;;;;;;5041790;28;20052;-47
2024/01/17 05:47:07;;;;;;;15.32;9.68;;;0.30;99.90;;;;;;5059992;28;20047;-46
2024/01/17 05:49:33;;;;;;;17.73;9.95;;;0.30;99.90;;;;;;5060271;28;20146;-46
2024/01/17 05:51:59;;;;;;;13.95;9.23;;;0.20;99.90;;;;;;5059765;28;20166;-50
2024/01/17 05:54:24;;;;;;;15.90;9.68;;;0.20;99.90;;;;;;5058764;28;20051;-48
2024/01/17 05:56:51;;;;;;;17.73;10.02;;;0.20;99.90;;;;;;5057909;28;20044;-46
2024/01/17 05:59:17;;;;;;;16.08;9.27;;;0.20;99.90;;;;;;5060499;28;20044;-46
2024/01/17 06:01:42;;;;;;;15.05;9.00;;;0.20;99.90;;;;;;5047413;28;20097;-47
2024/01/17 06:04:08;;;;;;;15.68;9.60;;;0.20;99.90;;;;;;5059855;28;20184;-48
2024/01/17 06:06:34;;;;;;;15.02;8.90;;;0.20;99.90;;;;;;5057586;28;20043;-49
2024/01/17 06:09:00;;;;;;;16.30;9.38;;;0.20;99.90;;;;;;5059676;28;20037;-47
2024/01/17 06:11:25;;;;;;;15.77;9.23;;;0.10;99.90;;;;;;5057902;28;20065;-49
2024/01/17 06:13:53;;;;;;;16.95;9.02;;;0.30;99.90;;;;;;5058094;28;20041;-49
2024/01/17 06:16:19;;;;;;;19.63;9.73;;;0.10;99.90;;;;;;5047768;28;20546;-47
2024/01/17 06:18:44;;;;;;;14.68;9.57;;;0.10;99.90;;;;;;5059143;28;20036;-46
2024/01/17 06:21:10;;;;;;;12.63;8.45;;;0.10;99.90;;;;;;5058330;28;20260;-49
2024/01/17 06:23:37;;;;;;;11.82;8.85;;;0.10;99.90;;;;;;5049409;28;20419;-46
2024/01/17 06:26:03;;;;;;;16.92;9.50;;;0.10;99.90;;;;;;5058024;28;20049;-50
2024/01/17 06:28:29;;;;;;;16.15;10.00;;;0.10;99.90;;;;;;5059687;28;20044;-46
2024/01/17 06:30:54;;;;;;;17.13;8.98;;;0.00;99.90;;;;;;5045887;28;20048;-50
2024/01/17 06:33:20;;;;;;;15.05;8.85;;;0.10;99.90;;;;;;5058879;28;20052;-50
2024/01/17 06:35:49;;;;;;;16.30;9.10;;;0.10;99.90;;;;;;5060015;28;20495;-46
2024/01/17 06:38:15;;;;;;;18.52;8.82;;;0.00;99.90;;;;;;5058110;28;20045;-47
2024/01/17 06:40:41;;;;;;;12.90;8.98;;;0.00;99.90;;;;;;5059209;28;20045;-49
2024/01/17 06:43:07;;;;;;;13.60;8.63;;;0.00;99.90;;;;;;5059561;28;20041;-49
2024/01/17 06:45:33;;;;;;;13.57;8.45;;;0.00;99.90;;;;;;5057600;28;20469;-47
2024/01/17 06:48:01;;;;;;;17.35;9.00;;;0.00;99.90;;;;;;5059570;28;20036;-50
2024/01/17 06:50:27;;;;;;;18.42;9.45;;;0.00;99.90;;;;;;5058533;28;20088;-48
2024/01/17 06:52:53;;;;;;;14.13;9.00;;;0.00;99.90;;;;;;5059774;28;20155;-48
2024/01/17 06:55:19;;;;;;;12.82;8.25;;;0.00;99.90;;;;;;5056511;28;20461;-48
2024/01/17 06:57:45;;;;;;;17.80;8.50;;;0.00;99.90;;;;;;5058620;28;20052;-46
2024/01/17 07:00:13;;;;;;;17.05;8.10;;;0.00;99.90;;;;;;5052619;28;20419;-47
2024/01/17 07:02:39;;;;;;;18.58;8.60;;;0.00;99.90;;;;;;5057940;28;20059;-48
2024/01/17 07:05:06;;;;;;;15.32;8.05;;;0.00;99.90;;;;;;5057230;28;20055;-49
2024/01/17 07:07:32;;;;;;;16.63;8.52;;;0.00;99.90;;;;;;5039438;28;20195;-50
2024/01/17 07:09:58;;;;;;;16.05;9.05;;;0.10;99.90;;;;;;5055479;28;20036;-51
2024/01/17 07:12:23;;;;;;;15.77;8.50;;;0.00;99.90;;;;;;5049141;28;20336;-48
2024/01/17 07:14:49;;;;;;;16.35;9.02;;;0.00;99.90;;;;;;5052000;28;20040;-47
2024/01/17 07:17:15;;;;;;;16.60;8.20;;;0.00;99.90;;;;;;5051975;28;20121;-49
2024/01/17 07:19:41;;;;;;;15.73;8.00;;;0.00;99.90;;;;;;5056007;28;20446;-51
2024/01/17 07:22:09;;;;;;;11.35;7.65;;;0.10;99.90;;;;;;5052974;28;21345;-47
2024/01/17 07:24:35;;;;;;;17.85;8.40;;;0.00;99.90;;;;;;5058762;28;20040;-47
2024/01/17 07:27:01;;;;;;;13.57;8.80;;;0.10;99.90;;;;;;5059395;28;20040;-48
2024/01/17 07:29:27;;;;;;;15.68;8.07;;;0.10;99.90;;;;;;5061114;28;20707;-48
2024/01/17 07:31:52;;;;;;;15.20;9.00;;;0.00;99.90;;;;;;5058468;28;20086;-47
2024/01/17 07:34:18;;;;;;;15.05;8.75;;;-0.10;99.90;;;;;;5062037;28;20041;-47
2024/01/17 07:36:44;;;;;;;14.60;8.50;;;-0.10;99.90;;;;;;5061957;28;20399;-48
2024/01/17 07:39:14;;;;;;;13.32;8.45;;;-0.10;99.90;;;;;;5060369;28;20040;-50
2024/01/17 07:41:40;;;;;;;13.18;8.82;;;-0.10;99.90;;;;;;5062101;28;20082;-49
2024/01/17 07:44:06;;;;;;;17.73;9.38;;;-0.20;99.90;;;;;;5063223;28;20107;-49
2024/01/17 07:46:32;;;;;;;13.27;8.38;;;-0.10;99.90;;;;;;5062880;28;20437;-48
2024/01/17 07:48:58;;;;;;;16.17;8.80;;;-0.20;99.90;;;;;;5062570;28;20047;-48
2024/01/17 07:51:24;;;;;;;19.38;9.93;;;-0.30;99.90;;;;;;5063039;28;20044;-47
2024/01/17 07:53:50;;;;;;;12.57;9.10;;;-0.40;99.90;;;;;;5061590;28;20044;-47
2024/01/17 07:56:15;;;;;;;12.95;8.48;;;-0.40;99.90;;;;;;5063460;28;20052;-50
2024/01/17 07:58:41;;;;;;;16.27;9.48;;;-0.40;99.90;;;;;;5061868;28;20043;-47
2024/01/17 08:01:07;;;;;;;15.95;9.75;;;-0.40;99.90;;;;;;5062984;28;20032;-50
2024/01/17 08:03:33;;;;;;;14.30;8.90;;;-0.40;99.90;;;;;;5062417;28;20032;-52
2024/01/17 08:05:58;;;;;;;13.32;8.02;;;-0.40;99.90;;;;;;5062185;28;20490;-46
2024/01/17 08:08:24;;;;;;;14.98;8.85;;;-0.40;99.90;;;;;;5063371;28;20415;-47
2024/01/17 08:10:50;;;;;;;14.52;8.95;;;-0.40;99.90;;;;;;5061921;28;20048;-51
2024/01/17 08:13:17;;;;;;;18.88;8.88;;;-0.40;99.90;;;;;;5062190;28;20051;-47
2024/01/17 08:15:42;;;;;;;15.02;8.35;;;-0.40;99.90;;;;;;5061326;28;20041;-51
2024/01/17 08:18:13;;;;;;;13.20;7.78;;;-0.40;99.90;;;;;;5062016;28;20094;-51
2024/01/17 08:20:39;;;;;;;15.90;8.57;;;-0.40;99.90;;;;;;5062192;28;20036;-47
2024/01/17 08:23:05;;;;;;;17.85;8.82;;;-0.40;99.90;;;;;;5061304;28;20043;-46
2024/01/17 08:25:32;;;;;;;14.02;9.57;;;-0.40;99.90;;;;;;5062320;28;20040;-47
2024/01/17 08:27:59;;;;;;;16.02;9.98;;;-0.20;99.90;;;;;;5061133;28;20040;-46
2024/01/17 08:30:25;;;;;;;17.75;8.48;;;-0.40;99.90;;;;;;5063197;28;20040;-47
2024/01/17 08:32:53;;;;;;;14.82;8.55;;;-0.30;99.90;;;;;;5060886;28;20048;-47
2024/01/17 08:35:20;;;;;;;13.43;8.67;;;-0.40;99.90;;;;;;5061684;28;20579;-46
2024/01/17 08:37:45;;;;;;;13.23;8.20;;;-0.50;99.90;;;;;;5051027;28;20279;-49
2024/01/17 08:40:12;;;;;;;13.65;8.52;;;-0.40;99.90;;;;;;5049339;28;20040;-46
2024/01/17 08:42:38;;;;;;;15.73;8.93;;;-0.40;99.90;;;;;;5062855;28;20036;-50
2024/01/17 08:45:06;;;;;;;15.02;8.55;;;-0.40;99.90;;;;;;5062654;28;20940;-51
2024/01/17 08:47:32;;;;;;;14.15;8.93;;;-0.40;99.90;;;;;;5061536;28;20589;-47
2024/01/17 08:50:00;;;;;;;15.45;8.48;;;-0.40;99.90;;;;;;5063738;28;20054;-47
2024/01/17 08:52:27;;;;;;;14.13;8.30;;;-0.30;99.90;;;;;;5060707;28;20036;-45
2024/01/17 08:54:55;;;;;;;12.25;8.55;;;-0.30;99.90;;;;;;5062094;28;20036;-48
2024/01/17 08:57:21;;;;;;;14.95;8.95;;;-0.30;99.90;;;;;;5061894;28;20044;-48
2024/01/17 08:59:47;;;;;;;12.88;7.85;;;-0.20;99.90;;;;;;5061822;28;20058;-50
2024/01/17 09:02:12;;;;;;;13.27;7.38;;;-0.20;99.90;;;;;;5051115;28;20051;-49
2024/01/17 09:04:39;;;;;;;13.85;7.55;;;-0.10;99.90;;;;;;5061574;28;20047;-47
2024/01/17 09:07:05;;;;;;;14.82;8.20;;;0.00;99.90;;;;;;5061817;28;20210;-48
2024/01/17 09:09:30;;;;;;;15.02;8.02;;;0.00;99.90;;;;;;5061308;28;20032;-46
2024/01/17 09:11:57;;;;;;;14.38;8.40;;;0.10;99.90;;;;;;5061480;28;20037;-49
2024/01/17 09:14:24;;;;;;;11.18;7.35;;;0.10;99.90;;;;;;5060860;28;20049;-51
2024/01/17 09:16:51;;;;;;;16.08;8.18;;;0.10;99.90;;;;;;5060640;28;20602;-47
2024/01/17 09:19:18;;;;;;;16.65;7.95;;;0.10;99.90;;;;;;5060878;28;20040;-47
2024/01/17 09:21:43;;;;;;;11.88;7.82;;;0.10;99.90;;;;;;5050954;28;20491;-49
2024/01/17 09:24:09;;;;;;;14.77;7.80;;;0.20;99.90;;;;;;5061381;28;20040;-47
2024/01/17 09:26:35;;;;;;;13.90;7.30;;;0.20;99.90;;;;;;5061264;28;20037;-49
2024/01/17 09:29:01;;;;;;;12.02;8.23;;;0.20;99.90;;;;;;5061746;28;20075;-47
2024/01/17 09:31:27;;;;;;;13.68;8.38;;;0.20;99.90;;;;;;5046606;28;20072;-48
2024/01/17 09:33:52;;;;;;;13.85;7.40;;;0.20;99.90;;;;;;5061753;28;20036;-48
2024/01/17 09:36:18;;;;;;;14.98;7.50;;;0.30;99.90;;;;;;5059940;28;20048;-51
2024/01/17 09:38:44;;;;;;;13.88;7.90;;;0.20;99.90;;;;;;5060880;28;20627;-49
2024/01/17 09:41:10;;;;;;;14.77;8.30;;;0.20;99.90;;;;;;5060800;28;20896;-48
2024/01/17 09:43:36;;;;;;;17.90;7.57;;;0.20;99.90;;;;;;5059807;28;20113;-51
2024/01/17 09:46:02;;;;;;;16.08;7.78;;;0.20;99.90;;;;;;5060538;28;20032;-46
2024/01/17 09:48:29;;;;;;;13.07;8.23;;;0.20;99.90;;;;;;5061452;28;20132;-50
2024/01/17 09:50:57;;;;;;;13.77;7.90;;;0.20;99.90;;;;;;5061002;28;20047;-47
2024/01/17 09:53:30;;;;;;;12.90;7.50;;;0.20;99.90;;;;;;5059665;28;20501;-49
2024/01/17 09:55:58;;;;;;;14.23;7.47;;;0.30;99.90;;;;;;5059525;28;20098;-47
2024/01/17 09:58:26;;;;;;;15.50;7.75;;;0.30;99.90;;;;;;5060076;28;20083;-48
2024/01/17 10:00:54;;;;;;;16.13;7.72;;;0.30;99.90;;;;;;5059790;28;20032;-47
2024/01/17 10:03:22;;;;;;;14.70;8.02;;;0.30;99.90;;;;;;5060436;28;20044;-47
2024/01/17 10:05:54;;;;;;;13.57;7.63;;;0.40;99.90;;;;;;5060743;28;20094;-46
2024/01/17 10:08:21;;;;;;;15.93;7.68;;;0.30;99.90;;;;;;5048123;28;20052;-47
2024/01/17 10:10:47;;;;;;;18.27;7.50;;;0.40;99.90;;;;;;5061156;28;20044;-48
2024/01/17 10:13:13;;;;;;;13.68;7.95;;;0.40;99.90;;;;;;5060306;28;20885;-48
2024/01/17 10:15:42;;;;;;;15.27;7.57;;;0.30;99.90;;;;;;5061988;28;20858;-49
2024/01/17 10:18:12;;;;;;;13.18;7.47;;;0.40;99.90;;;;;;5060463;28;20068;-51
2024/01/17 10:20:37;;;;;;;;;;;0.40;99.90;;;;;;5060995;28;20068;-47
2024/01/17 10:23:06;;;;;;;15.70;7.40;;;0.50;99.90;;;;;;5060343;28;20035;-50
2024/01/17 10:25:41;;;;;;;13.95;7.10;;;0.50;99.90;;;;;;5060590;28;20036;-47
2024/01/17 10:28:08;;;;;;;12.30;6.97;;;0.60;99.90;;;;;;5059041;28;20145;-49
2024/01/17 10:30:36;;;;;;;13.48;7.75;;;0.50;99.90;;;;;;5060994;28;20678;-46
2024/01/17 10:33:03;;;;;;;15.45;8.07;;;0.60;99.90;;;;;;5059117;28;20123;-45
2024/01/17 10:35:30;;;;;;;10.38;6.95;;;0.60;99.90;;;;;;5059944;28;20037;-47
2024/01/17 10:37:56;;;;;;;11.90;6.57;;;0.60;99.90;;;;;;5060145;28;20094;-47
2024/01/17 10:40:22;;;;;;;12.43;7.47;;;0.70;99.90;;;;;;5059710;28;20048;-46
2024/01/17 10:43:13;;;;;;;12.13;6.85;;;0.60;99.90;;;;;;5060238;28;20041;-46
2024/01/17 10:45:40;;;;;;;12.07;6.75;;;0.60;99.90;;;;;;5059268;28;20044;-46
2024/01/17 10:48:07;;;;;;;9.85;7.18;;;0.60;99.90;;;;;;5060263;28;20131;-50
2024/01/17 10:50:33;;;;;;;14.07;6.53;;;0.70;99.90;;;;;;5060320;28;20040;-50
2024/01/17 10:53:07;;;;;;;11.90;6.97;;;0.70;99.90;;;;;;5060614;28;20586;-46
2024/01/17 10:55:35;;;;;;;12.38;6.60;;;0.80;99.90;;;;;;5057573;28;20456;-47
2024/01/17 10:58:07;;;;;;;15.88;7.10;;;0.70;99.90;;;;;;5058257;28;20505;-51
2024/01/17 11:00:37;;;;;;;12.82;7.43;;;0.80;99.90;;;;;;5058824;28;20284;-49
2024/01/17 11:03:08;;;;;;;11.38;6.47;;;0.80;99.90;;;;;;5057145;28;20671;-48
2024/01/17 11:05:44;;;;;;;11.68;6.72;;;0.90;99.90;;;;;;5059045;28;20048;-48
2024/01/17 11:08:12;;;;;;;17.73;6.93;;;0.90;99.90;;;;;;5058658;28;20045;-50
2024/01/17 11:10:40;;;;;;;9.73;6.60;;;1.00;99.90;;;;;;5058640;28;20453;-49
2024/01/17 11:13:08;;;;;;;12.85;6.45;;;1.00;99.90;;;;;;5057732;28;20113;-47
2024/01/17 11:15:38;;;;;;;11.02;6.63;;;1.00;99.90;;;;;;5057661;28;20123;-50
2024/01/17 11:18:04;;;;;;;10.63;5.78;;;0.90;99.90;;;;;;5060204;28;20064;-48
2024/01/17 11:20:30;;;;;;;17.88;6.97;;;1.00;99.90;;;;;;5058965;28;20190;-49
2024/01/17 11:22:57;;;;;;;17.63;7.38;;;1.10;99.90;;;;;;5059210;28;20033;-49
2024/01/17 11:25:34;;;;;;;11.45;6.07;;;1.00;99.90;;;;;;5060079;28;20090;-52
2024/01/17 11:28:36;;;;;;;19.42;6.05;;;1.10;99.90;;;;;;5058911;28;20044;-47
2024/01/17 11:31:24;;;;;;;10.20;6.32;;;1.10;99.90;;;;;;5019850;28;20046;-48
2024/01/17 11:33:50;;;;;;;11.63;6.75;;;1.10;99.90;;;;;;5059216;28;20045;-50
2024/01/17 11:36:45;;;;;;;10.82;7.45;;;1.10;99.90;;;;;;5058857;28;20435;-49
2024/01/17 11:39:18;;;;;;;13.40;6.38;;;1.20;99.90;;;;;;5058668;28;20123;-52
2024/01/17 11:41:45;;;;;;;9.80;6.22;;;1.10;99.90;;;;;;5055503;28;20534;-50
2024/01/17 11:44:14;;;;;;;11.88;6.57;;;1.10;99.90;;;;;;5046313;28;20080;-49
2024/01/17 11:46:40;;;;;;;11.68;7.00;;;1.00;99.90;;;;;;5058369;28;20040;-51
2024/01/17 11:49:09;;;;;;;12.20;6.95;;;1.00;99.90;;;;;;5057742;28;20094;-49
2024/01/17 11:51:37;;;;;;;13.40;6.28;;;1.00;99.90;;;;;;5058954;28;20048;-51
2024/01/17 11:54:10;;;;;;;12.07;6.30;;;1.00;99.90;;;;;;5057296;28;20047;-52
2024/01/17 11:56:36;;;;;;;8.90;5.78;;;1.00;99.90;;;;;;5058506;28;20146;-49
2024/01/17 11:59:08;;;;;;;14.05;6.45;;;1.10;99.90;;;;;;5058122;28;20115;-48
2024/01/17 12:01:37;;;;;;;11.27;6.88;;;1.00;99.90;;;;;;5057533;28;20040;-49
2024/01/17 12:04:19;;;;;;;8.05;6.10;;;1.10;99.90;;;;;;5059419;28;20036;-51
2024/01/17 12:06:49;;;;;;;13.18;6.95;;;1.10;99.90;;;;;;5058175;28;20119;-51
2024/01/17 12:09:18;;;;;;;14.52;7.47;;;1.20;99.90;;;;;;5058239;28;20780;-49
2024/01/17 12:11:48;;;;;;;15.75;6.53;;;1.10;99.90;;;;;;5057252;28;20047;-50
2024/01/17 12:14:15;;;;;;;9.63;6.13;;;1.10;99.90;;;;;;5057875;28;20041;-46
2024/01/17 12:16:41;;;;;;;15.27;7.18;;;1.00;99.90;;;;;;5061167;28;20044;-50
2024/01/17 12:19:10;;;;;;;14.00;7.05;;;1.10;99.90;;;;;;5049726;28;20377;-56
2024/01/17 12:21:36;;;;;;;15.27;8.10;;;1.10;99.90;;;;;;5051718;28;20036;-51
2024/01/17 12:24:02;;;;;;;14.30;7.85;;;1.10;99.90;;;;;;5060485;28;20039;-51
2024/01/17 12:26:27;;;;;;;14.98;7.82;;;1.00;99.90;;;;;;5061847;28;20036;-51
2024/01/17 12:29:06;;;;;;;15.20;9.00;;;1.00;99.90;;;;;;5061359;28;20499;-47
2024/01/17 12:31:32;;;;;;;12.15;7.40;;;1.10;99.90;;;;;;5061848;28;20040;-48
2024/01/17 12:33:58;;;;;;;13.18;7.47;;;1.00;99.90;;;;;;5062259;28;20051;-48
2024/01/17 12:36:24;;;;;;;11.95;7.15;;;1.00;99.90;;;;;;5060312;28;20123;-47
2024/01/17 12:38:51;;;;;;;15.95;8.18;;;1.10;99.90;;;;;;5062100;28;20087;-49
2024/01/17 12:41:17;;;;;;;11.98;7.72;;;1.10;99.90;;;;;;5062534;28;20382;-49
2024/01/17 12:43:46;;;;;;;15.88;8.23;;;1.10;99.90;;;;;;5061865;28;20040;-48
2024/01/17 12:46:12;;;;;;;15.68;8.30;;;1.10;99.90;;;;;;5061390;28;20123;-49